Time;durP1;ratioP1;P1;durP2;ratioP2;P2;SDS_P1;SDS_P2;PMS_P1;PMS_P2;Temp;Humidity;BMP_temperature;BMP_pressure;BME280_temperature;BME280_humidity;BME280_pressure;Samples;Min_cycle;Max_cycle;Signal;HPM_P1;HPM_P2
2023/08/20 00:01:31;;;;;;;7.00;3.20;;;;;;;20.51;100.00;100165.36;108982;1254;72768;-49
2023/08/20 00:03:59;;;;;;;8.00;3.90;;;;;;;20.51;100.00;100164.64;108972;1254;60358;-48
2023/08/20 00:06:27;;;;;;;8.80;4.60;;;;;;;20.48;100.00;100164.19;109037;1254;59080;-49
2023/08/20 00:08:54;;;;;;;7.50;4.60;;;;;;;20.41;100.00;100162.73;108988;1254;73724;-49
2023/08/20 00:11:22;;;;;;;13.80;5.60;;;;;;;20.37;100.00;100161.41;109113;1256;68595;-49
2023/08/20 00:13:49;;;;;;;12.70;4.10;;;;;;;20.35;100.00;100163.59;108983;1254;71957;-49
2023/08/20 00:16:16;;;;;;;14.20;4.30;;;;;;;20.33;100.00;100161.70;109079;1254;61796;-49
2023/08/20 00:18:44;;;;;;;8.90;4.90;;;;;;;20.32;100.00;100159.98;108977;1254;58811;-48
2023/08/20 00:21:13;;;;;;;5.60;3.00;;;;;;;20.32;100.00;100160.52;109137;1254;73769;-50
2023/08/20 00:23:41;;;;;;;3.00;2.70;;;;;;;20.34;100.00;100159.81;109011;1256;66392;-48
2023/08/20 00:26:09;;;;;;;14.00;5.40;;;;;;;20.36;100.00;100162.94;108991;1255;73135;-48
2023/08/20 00:28:38;;;;;;;5.20;3.70;;;;;;;20.37;100.00;100156.27;109066;1257;60628;-49
2023/08/20 00:31:06;;;;;;;13.80;5.00;;;;;;;20.36;100.00;100159.48;107207;1254;60887;-51
2023/08/20 00:33:34;;;;;;;11.10;4.80;;;;;;;20.31;100.00;100160.76;104850;1256;73822;-50
2023/08/20 00:36:01;;;;;;;6.20;3.60;;;;;;;20.30;100.00;100153.98;104790;1256;67148;-51
2023/08/20 00:38:29;;;;;;;2.40;2.20;;;;;;;20.29;100.00;100152.08;104881;1255;71467;-50
2023/08/20 00:40:56;;;;;;;3.80;2.80;;;;;;;20.28;100.00;100149.21;105316;1259;60531;-50
2023/08/20 00:43:23;;;;;;;3.60;3.30;;;;;;;20.27;100.00;100148.71;105301;1260;60563;-49
2023/08/20 00:45:50;;;;;;;3.10;2.90;;;;;;;20.27;100.00;100146.15;105314;1256;72558;-50
2023/08/20 00:48:18;;;;;;;2.30;2.10;;;;;;;20.28;100.00;100144.46;105679;1256;66930;-50
2023/08/20 00:50:45;;;;;;;4.70;2.40;;;;;;;20.28;100.00;100147.17;105289;1259;73211;-49
2023/08/20 00:53:13;;;;;;;2.60;2.40;;;;;;;20.29;100.00;100150.41;105355;1259;61716;-51
2023/08/20 00:55:42;;;;;;;3.00;2.80;;;;;;;20.28;100.00;100147.17;105311;1259;60540;-51
2023/08/20 00:58:10;;;;;;;2.30;2.20;;;;;;;20.28;100.00;100151.42;105383;1260;73835;-49
2023/08/20 01:00:37;;;;;;;3.50;3.20;;;;;;;20.27;100.00;100150.73;105386;1256;66089;-50
2023/08/20 01:03:05;;;;;;;4.40;3.10;;;;;;;20.26;100.00;100147.52;105269;1255;73354;-50
2023/08/20 01:05:34;;;;;;;2.50;2.40;;;;;;;20.26;100.00;100146.67;105338;1259;61596;-48
2023/08/20 01:08:15;;;;;;;3.90;3.20;;;;;;;20.23;100.00;100146.13;105303;1254;60662;-49
2023/08/20 01:11:08;;;;;;;4.60;2.50;;;;;;;20.20;100.00;100145.91;105221;1259;73933;-49
2023/08/20 01:13:36;;;;;;;3.60;3.10;;;;;;;20.17;100.00;100140.48;105397;1259;66360;-50
2023/08/20 01:16:03;;;;;;;3.30;2.60;;;;;;;20.16;100.00;100140.39;105209;1260;72542;-49
2023/08/20 01:18:31;;;;;;;3.20;2.90;;;;;;;20.14;100.00;100139.98;105426;1254;62332;-50
2023/08/20 01:21:02;;;;;;;4.10;2.60;;;;;;;20.11;100.00;100140.08;105245;1256;60553;-49
2023/08/20 01:23:49;;;;;;;3.10;2.60;;;;;;;20.07;100.00;100137.30;106080;1261;73891;-49
2023/08/20 01:26:33;;;;;;;3.00;2.70;;;;;;;20.04;100.00;100137.19;105265;1255;68924;-50
2023/08/20 01:29:00;;;;;;;2.50;2.30;;;;;;;20.01;100.00;100135.36;105335;1256;72485;-49
2023/08/20 01:31:27;;;;;;;3.50;2.40;;;;;;;20.01;100.00;100137.42;105225;1256;60485;-49
2023/08/20 01:33:55;;;;;;;4.50;2.60;;;;;;;20.00;100.00;100134.01;105436;1254;60733;-50
2023/08/20 01:36:25;;;;;;;2.90;2.70;;;;;;;19.99;100.00;100133.23;104928;1255;73764;-51
2023/08/20 01:38:52;;;;;;;4.20;3.30;;;;;;;19.98;100.00;100131.46;105077;1261;68017;-50
2023/08/20 01:41:19;;;;;;;7.40;2.90;;;;;;;19.98;100.00;100131.85;105248;1259;72420;-51
2023/08/20 01:43:47;;;;;;;2.10;2.00;;;;;;;19.97;100.00;100127.67;105410;1259;61655;-50
2023/08/20 01:46:14;;;;;;;3.50;3.20;;;;;;;19.97;100.00;100129.20;105535;1257;60762;-49
2023/08/20 01:48:42;;;;;;;2.70;2.50;;;;;;;19.97;100.00;100128.64;105345;1254;72812;-49
2023/08/20 01:51:09;;;;;;;3.70;3.20;;;;;;;19.93;100.00;100130.41;105197;1256;67973;-49
2023/08/20 01:53:37;;;;;;;4.20;2.80;;;;;;;19.88;100.00;100128.62;105473;1257;71286;-48
2023/08/20 01:56:04;;;;;;;5.00;3.40;;;;;;;19.85;100.00;100128.88;105352;1257;60547;-49
2023/08/20 01:58:32;;;;;;;3.50;2.70;;;;;;;19.83;100.00;100125.71;105294;1259;60890;-49
2023/08/20 02:00:59;;;;;;;3.80;3.50;;;;;;;19.82;100.00;100128.77;105280;1257;73856;-50
2023/08/20 02:03:30;;;;;;;3.40;3.10;;;;;;;19.82;100.00;100129.34;105284;1257;68367;-50
2023/08/20 02:05:58;;;;;;;2.70;2.60;;;;;;;19.82;100.00;100128.62;105498;1259;72480;-50
2023/08/20 02:08:26;;;;;;;7.60;2.90;;;;;;;19.79;100.00;100127.77;105280;1255;60563;-49
2023/08/20 02:11:02;;;;;;;3.30;2.90;;;;;;;19.76;100.00;100130.14;105395;1253;60446;-49
2023/08/20 02:13:30;;;;;;;4.40;4.10;;;;;;;19.74;100.00;100130.88;105419;1257;73745;-49
2023/08/20 02:16:03;;;;;;;3.40;3.10;;;;;;;19.73;100.00;100132.61;105744;1256;66970;-48
2023/08/20 02:18:30;;;;;;;4.10;3.80;;;;;;;19.72;100.00;100132.34;105378;1259;72631;-49
2023/08/20 02:20:58;;;;;;;3.10;2.50;;;;;;;19.70;100.00;100129.74;105345;1255;60505;-47
2023/08/20 02:23:25;;;;;;;3.40;3.00;;;;;;;19.66;100.00;100128.54;105352;1256;60458;-51
2023/08/20 02:25:53;;;;;;;8.00;3.10;;;;;;;19.63;100.00;100130.11;105523;1256;73933;-50
2023/08/20 02:28:21;;;;;;;4.00;3.60;;;;;;;19.60;100.00;100132.18;105350;1259;65578;-50
2023/08/20 02:30:48;;;;;;;3.00;2.80;;;;;;;19.58;100.00;100134.86;105274;1258;72461;-50
2023/08/20 02:33:16;;;;;;;4.50;3.20;;;;;;;19.57;100.00;100135.66;105646;1256;61396;-50
2023/08/20 02:35:43;;;;;;;3.30;3.00;;;;;;;19.56;100.00;100129.14;105322;1257;60493;-49
2023/08/20 02:38:11;;;;;;;3.30;3.10;;;;;;;19.54;100.00;100129.34;105325;1256;72571;-50
2023/08/20 02:40:41;;;;;;;3.20;2.90;;;;;;;19.49;100.00;100134.83;105762;1259;68396;-49
2023/08/20 02:43:08;;;;;;;2.50;2.30;;;;;;;19.45;100.00;100133.88;105720;1256;73087;-50
2023/08/20 02:45:42;;;;;;;3.60;3.40;;;;;;;19.44;100.00;100132.30;105361;1254;60493;-49
2023/08/20 02:48:10;;;;;;;3.60;3.40;;;;;;;19.44;100.00;100131.60;106788;1256;60589;-50
2023/08/20 02:50:38;;;;;;;4.80;3.10;;;;;;;19.39;100.00;100132.16;106021;1259;73816;-49
2023/08/20 02:53:05;;;;;;;3.50;3.30;;;;;;;19.33;100.00;100129.55;108972;1256;65909;-51
2023/08/20 02:55:33;;;;;;;5.50;3.20;;;;;;;19.29;100.00;100127.70;109035;1254;72635;-50
2023/08/20 02:58:00;;;;;;;3.00;2.70;;;;;;;19.29;100.00;100133.52;108971;1256;60745;-50
2023/08/20 03:00:28;;;;;;;4.60;2.50;;;;;;;19.30;100.00;100128.35;109015;1254;60012;-51
2023/08/20 03:02:56;;;;;;;4.40;2.20;;;;;;;19.32;100.00;100130.17;109151;1254;72796;-51
2023/08/20 03:05:23;;;;;;;2.30;2.10;;;;;;;19.35;100.00;100130.32;108966;1254;65522;-51
2023/08/20 03:07:50;;;;;;;2.30;2.10;;;;;;;19.37;100.00;100126.68;107942;1257;71331;-49
2023/08/20 03:10:18;;;;;;;4.40;3.70;;;;;;;19.40;100.00;100129.73;105216;1259;60520;-50
2023/08/20 03:12:45;;;;;;;4.50;3.10;;;;;;;19.41;100.00;100124.86;105390;1259;60422;-50
2023/08/20 03:15:12;;;;;;;3.40;3.10;;;;;;;19.42;100.00;100121.20;105335;1256;73307;-49
2023/08/20 03:17:40;;;;;;;3.50;3.00;;;;;;;19.44;100.00;100120.31;105285;1256;67614;-49
2023/08/20 03:20:08;;;;;;;6.30;3.80;;;;;;;19.48;100.00;100118.08;108892;1258;72645;-50
2023/08/20 03:22:36;;;;;;;7.40;2.80;;;;;;;19.49;100.00;100118.09;108900;1258;60530;-52
2023/08/20 03:25:04;;;;;;;3.20;3.00;;;;;;;19.51;100.00;100114.65;109021;1255;59479;-50
2023/08/20 03:27:32;;;;;;;4.90;3.80;;;;;;;19.52;100.00;100117.68;108960;1254;73856;-51
2023/08/20 03:30:01;;;;;;;3.70;3.40;;;;;;;19.53;100.00;100116.89;108861;1256;66882;-52
2023/08/20 03:32:31;;;;;;;3.90;3.60;;;;;;;19.54;100.00;100121.54;108957;1256;71143;-51
2023/08/20 03:34:59;;;;;;;4.60;3.10;;;;;;;19.56;100.00;100120.27;108851;1256;60440;-51
2023/08/20 03:37:26;;;;;;;3.90;3.50;;;;;;;19.59;100.00;100119.10;108970;1256;58844;-50
2023/08/20 03:39:53;;;;;;;3.20;2.90;;;;;;;19.62;100.00;100119.41;106089;1259;73874;-50
2023/08/20 03:42:21;;;;;;;4.80;4.40;;;;;;;19.64;100.00;100124.89;105239;1257;67399;-48
2023/08/20 03:44:48;;;;;;;3.50;3.10;;;;;;;19.66;100.00;100122.90;105292;1259;72601;-49
2023/08/20 03:47:20;;;;;;;4.80;3.40;;;;;;;19.70;100.00;100119.91;105101;1256;60675;-49
2023/08/20 03:52:49;;;;;;;4.70;3.80;;;;;;;19.77;100.00;100163.75;102386;1295;600372;-50
2023/08/20 03:55:16;;;;;;;5.20;4.30;;;;;;;19.76;100.00;100158.36;104608;1270;60902;-50
2023/08/20 03:57:44;;;;;;;3.80;3.50;;;;;;;19.79;100.00;100152.86;104570;1270;59219;-50
2023/08/20 04:00:12;;;;;;;4.30;3.50;;;;;;;19.81;100.00;100146.67;104499;1271;73926;-50
2023/08/20 04:02:44;;;;;;;3.80;3.40;;;;;;;19.84;100.00;100144.44;107374;1269;65756;-52
2023/08/20 04:05:12;;;;;;;4.60;3.00;;;;;;;19.87;100.00;100141.83;104517;1269;73011;-50
2023/08/20 04:07:39;;;;;;;7.00;3.50;;;;;;;19.92;100.00;100130.52;104335;1279;221734;-49
2023/08/20 04:10:07;;;;;;;4.10;3.80;;;;;;;19.97;100.00;100131.13;104685;1269;59262;-48
2023/08/20 04:12:35;;;;;;;3.10;2.80;;;;;;;20.09;100.00;100125.98;104673;1269;72020;-48
2023/08/20 04:15:04;;;;;;;3.10;2.90;;;;;;;20.26;100.00;100121.69;104589;1268;68006;-50
2023/08/20 04:17:32;;;;;;;4.10;3.10;;;;;;;20.41;100.00;100121.73;104681;1279;73506;-50
2023/08/20 04:20:00;;;;;;;3.10;2.80;;;;;;;20.51;100.00;100120.17;104872;1269;60442;-49
2023/08/20 04:22:31;;;;;;;3.40;3.10;;;;;;;20.60;100.00;100122.31;104410;1276;59661;-51
2023/08/20 04:24:58;;;;;;;4.80;2.70;;;;;;;20.72;100.00;100120.77;104582;1264;73107;-51
2023/08/20 04:27:26;;;;;;;4.20;3.00;;;;;;;20.84;100.00;100116.81;104488;1271;67604;-48
2023/08/20 04:29:55;;;;;;;4.20;3.40;;;;;;;21.01;100.00;100114.05;104749;1272;71260;-50
2023/08/20 04:32:23;;;;;;;4.20;3.80;;;;;;;21.27;100.00;100110.94;105989;1269;61639;-50
2023/08/20 04:34:52;;;;;;;3.60;3.30;;;;;;;21.61;100.00;100110.44;104714;1269;60046;-50
2023/08/20 04:37:20;;;;;;;10.20;3.80;;;;;;;22.01;100.00;100110.55;104658;1268;72867;-49
2023/08/20 04:39:47;;;;;;;6.30;4.30;;;;;;;22.40;100.00;100111.04;104542;1269;67919;-50
2023/08/20 04:42:15;;;;;;;5.60;5.10;;;;;;;22.68;100.00;100108.78;104685;1269;72087;-51
2023/08/20 04:44:42;;;;;;;4.50;4.10;;;;;;;22.93;100.00;100110.27;104738;1264;61636;-52
2023/08/20 04:47:12;;;;;;;4.80;4.50;;;;;;;23.16;100.00;100110.16;104602;1264;59676;-50
2023/08/20 04:49:41;;;;;;;6.90;6.20;;;;;;;23.28;100.00;100107.45;104301;1273;72053;-51
2023/08/20 04:52:08;;;;;;;5.80;5.10;;;;;;;23.35;100.00;100111.45;104204;1267;65752;-50
2023/08/20 04:54:36;;;;;;;7.20;6.50;;;;;;;23.37;100.00;100112.89;104732;1269;72770;-52
2023/08/20 04:57:03;;;;;;;8.40;5.70;;;;;;;23.36;100.00;100112.02;104733;1267;61716;-51
2023/08/20 04:59:31;;;;;;;8.10;6.50;;;;;;;23.36;100.00;100115.88;104693;1263;60047;-52
2023/08/20 05:02:18;;;;;;;6.00;5.40;;;;;;;23.37;100.00;100120.52;104728;1269;73453;-50
2023/08/20 05:04:53;;;;;;;8.80;6.70;;;;;;;23.41;100.00;100126.40;104822;1263;66966;-52
2023/08/20 05:07:20;;;;;;;6.60;6.10;;;;;;;23.45;100.00;100125.87;104650;1269;72724;-51
2023/08/20 05:09:47;;;;;;;7.20;6.20;;;;;;;23.51;100.00;100128.41;104627;1268;62157;-52
2023/08/20 05:12:15;;;;;;;7.90;7.20;;;;;;;23.58;100.00;100135.21;104552;1267;59741;-50
2023/08/20 05:14:42;;;;;;;7.50;6.60;;;;;;;23.67;100.00;100137.82;104265;1262;72975;-51
2023/08/20 05:17:09;;;;;;;7.70;7.00;;;;;;;23.76;100.00;100135.32;103908;1264;66868;-52
2023/08/20 05:19:37;;;;;;;7.90;6.00;;;;;;;23.85;100.00;100139.73;104536;1270;71092;-51
2023/08/20 05:22:04;;;;;;;7.50;7.00;;;;;;;23.92;100.00;100144.14;104651;1269;59795;-53
2023/08/20 05:24:33;;;;;;;6.30;5.50;;;;;;;23.99;100.00;100143.31;104656;1264;59973;-52
2023/08/20 05:27:07;;;;;;;7.40;6.80;;;;;;;24.06;100.00;100140.98;104651;1268;71769;-51
2023/08/20 05:29:35;;;;;;;6.80;5.10;;;;;;;24.14;100.00;100147.69;104660;1263;67333;-51
2023/08/20 05:32:02;;;;;;;5.00;4.60;;;;;;;24.21;100.00;100150.69;104498;1264;71578;-52
2023/08/20 05:34:30;;;;;;;4.40;3.50;;;;;;;24.29;100.00;100150.70;104886;1266;61645;-51
2023/08/20 05:36:58;;;;;;;3.50;3.20;;;;;;;24.36;100.00;100148.80;105374;1261;59617;-51
2023/08/20 05:39:26;;;;;;;5.00;3.50;;;;;;;24.44;100.00;100151.34;105962;1263;71930;-53
2023/08/20 05:41:54;;;;;;;4.40;3.70;;;;;;;24.51;100.00;100154.42;104784;1266;66891;-50
2023/08/20 05:44:21;;;;;;;4.50;4.10;;;;;;;24.60;100.00;100153.02;104211;1267;71363;-51
2023/08/20 05:46:49;;;;;;;5.10;4.40;;;;;;;24.69;100.00;100152.10;104431;1264;61051;-53
2023/08/20 05:49:17;;;;;;;6.90;4.60;;;;;;;24.77;100.00;100147.98;104713;1256;60143;-51
2023/08/20 05:51:44;;;;;;;4.40;4.00;;;;;;;24.85;100.00;100149.38;105109;1264;73071;-51
2023/08/20 05:54:12;;;;;;;4.40;4.00;;;;;;;24.92;100.00;100151.62;106076;1257;66723;-53
2023/08/20 05:56:39;;;;;;;3.90;3.50;;;;;;;24.98;100.00;100152.45;105158;1258;72737;-53
2023/08/20 05:59:06;;;;;;;3.20;2.90;;;;;;;25.05;100.00;100151.41;105135;1257;61753;-53
2023/08/20 06:01:34;;;;;;;3.30;2.90;;;;;;;25.12;100.00;100152.17;104839;1257;60088;-52
2023/08/20 06:04:01;;;;;;;3.50;3.20;;;;;;;25.19;100.00;100157.48;104797;1264;73460;-52
2023/08/20 06:06:29;;;;;;;2.90;2.70;;;;;;;25.26;100.00;100163.30;108733;1256;66318;-52
2023/08/20 06:08:56;;;;;;;2.80;2.60;;;;;;;25.34;100.00;100165.61;108764;1257;72430;-53
2023/08/20 06:11:36;;;;;;;2.90;2.40;;;;;;;25.43;100.00;100170.40;108817;1261;60166;-53
2023/08/20 06:14:03;;;;;;;6.70;2.70;;;;;;;25.51;100.00;100172.64;108815;1257;59936;-53
2023/08/20 06:16:30;;;;;;;2.60;2.40;;;;;;;25.60;100.00;100177.47;108898;1257;73015;-53
2023/08/20 06:18:58;;;;;;;5.40;2.50;;;;;;;25.67;100.00;100180.95;108863;1256;66797;-52
2023/08/20 06:21:29;;;;;;;6.60;2.80;;;;;;;25.75;100.00;100185.83;108685;1256;73139;-53
2023/08/20 06:23:56;;;;;;;6.50;2.40;;;;;;;25.82;100.00;100190.06;108926;1256;59123;-54
2023/08/20 06:26:24;;;;;;;6.20;2.90;;;;;;;25.89;100.00;100193.14;108694;1256;60724;-52
2023/08/20 06:28:51;;;;;;;3.10;2.40;;;;;;;25.96;100.00;100196.41;108735;1257;72952;-52
2023/08/20 06:31:18;;;;;;;2.50;2.00;;;;;;;26.03;100.00;100199.58;108869;1256;66736;-52
2023/08/20 06:33:47;;;;;;;2.70;1.90;;;;;;;26.10;100.00;100201.63;107822;1256;73595;-52
2023/08/20 06:36:14;;;;;;;5.90;1.90;;;;;;;26.17;100.00;100202.75;108778;1256;60410;-52
2023/08/20 06:38:44;;;;;;;2.30;1.30;;;;;;;26.24;100.00;100207.86;108843;1256;58854;-53
2023/08/20 06:41:11;;;;;;;4.40;1.80;;;;;;;26.31;100.00;100209.07;108828;1257;71819;-54
2023/08/20 06:43:39;;;;;;;3.10;1.30;;;;;;;26.39;100.00;100211.56;108685;1256;67344;-55
2023/08/20 06:46:06;;;;;;;4.00;1.40;;;;;;;26.47;100.00;100216.40;108778;1257;72870;-55
2023/08/20 06:48:34;;;;;;;2.80;1.20;;;;;;;26.55;100.00;100216.86;108702;1257;62221;-53
2023/08/20 06:51:15;;;;;;;4.40;1.70;;;;;;;26.63;100.00;100220.05;105236;1257;60080;-52
2023/08/20 06:53:42;;;;;;;4.10;1.20;;;;;;;26.73;100.00;100224.81;104415;1257;71895;-52
2023/08/20 06:56:11;;;;;;;3.70;1.20;;;;;;;26.81;100.00;100232.44;104489;1258;67335;-53
2023/08/20 06:58:38;;;;;;;2.00;1.20;;;;;;;26.88;100.00;100235.34;105666;1256;72698;-53
2023/08/20 07:01:09;;;;;;;1.70;1.60;;;;;;;26.94;100.00;100236.55;104446;1262;60059;-53
2023/08/20 07:03:40;;;;;;;2.20;1.10;;;;;;;27.00;100.00;100243.00;104607;1260;60045;-53
2023/08/20 07:06:14;;;;;;;4.30;1.40;;;;;;;27.06;100.00;100244.03;104473;1258;73617;-53
2023/08/20 07:08:41;;;;;;;2.50;1.40;;;;;;;27.14;100.00;100250.41;104978;1257;65848;-52
2023/08/20 07:11:09;;;;;;;3.10;1.20;;;;;;;27.20;100.00;100253.65;104614;1261;74567;-52
2023/08/20 07:13:36;;;;;;;2.50;1.30;;;;;;;27.25;100.00;100255.83;104045;1256;59696;-53
2023/08/20 07:16:04;;;;;;;2.30;1.40;;;;;;;27.31;100.00;100256.64;104506;1261;61097;-52
2023/08/20 07:18:31;;;;;;;5.90;1.00;;;;;;;27.36;100.00;100257.07;104867;1256;72963;-53
2023/08/20 07:20:59;;;;;;;2.10;1.00;;;;;;;27.42;100.00;100260.46;104575;1257;66765;-53
2023/08/20 07:23:26;;;;;;;1.50;1.00;;;;;;;27.47;100.00;100265.83;108104;1256;73326;-53
2023/08/20 07:26:07;;;;;;;4.50;1.40;;;;;;;27.53;100.00;100270.55;104798;1262;60081;-51
2023/08/20 07:31:21;;;;;;;1.10;1.00;;;;;;;27.67;100.00;100274.73;104707;1257;71866;-53
2023/08/20 07:33:49;;;;;;;2.50;1.10;;;;;;;27.73;100.00;100281.38;104719;1260;65473;-53
2023/08/20 07:36:16;;;;;;;2.50;1.20;;;;;;;27.78;100.00;100285.38;104985;1257;71462;-52
2023/08/20 07:38:44;;;;;;;4.40;1.50;;;;;;;27.83;100.00;100289.06;104867;1256;60584;-52
2023/08/20 07:41:11;;;;;;;3.90;1.60;;;;;;;27.89;100.00;100288.35;104970;1257;59561;-52
2023/08/20 07:43:39;;;;;;;1.60;1.30;;;;;;;27.94;100.00;100281.60;104735;1261;73019;-54
2023/08/20 07:46:07;;;;;;;1.50;1.20;;;;;;;28.00;100.00;100289.80;104808;1262;67305;-52
2023/08/20 07:48:35;;;;;;;5.00;1.40;;;;;;;28.05;100.00;100290.67;105035;1260;72667;-53
2023/08/20 07:51:02;;;;;;;5.70;2.10;;;;;;;28.12;100.00;100293.44;104670;1257;60120;-53
2023/08/20 07:53:30;;;;;;;1.50;1.30;;;;;;;28.18;100.00;100289.79;104922;1257;60661;-51
2023/08/20 07:55:59;;;;;;;3.10;1.10;;;;;;;28.24;100.00;100295.39;105325;1259;72955;-53
2023/08/20 07:58:27;;;;;;;4.10;1.60;;;;;;;28.29;100.00;100298.09;105273;1256;66939;-54
2023/08/20 08:00:57;;;;;;;1.10;1.00;;;;;;;28.34;100.00;100297.36;105273;1260;71751;-54
2023/08/20 08:03:28;;;;;;;4.40;1.60;;;;;;;28.39;100.00;100298.86;105197;1259;60435;-51
2023/08/20 08:05:56;;;;;;;2.00;1.10;;;;;;;28.44;100.00;100304.81;104954;1263;61037;-53
2023/08/20 08:08:23;;;;;;;2.50;1.00;;;;;;;28.49;100.00;100304.63;105823;1261;72749;-52
2023/08/20 08:10:51;;;;;;;2.50;1.20;;;;;;;28.53;100.00;100304.96;105590;1256;66915;-52
2023/08/20 08:13:22;;;;;;;3.70;1.10;;;;;;;28.56;100.00;100306.22;105135;1257;73151;-52
2023/08/20 08:15:50;;;;;;;2.10;1.00;;;;;;;28.59;100.00;100312.74;105370;1257;60562;-53
2023/08/20 08:18:19;;;;;;;2.00;0.80;;;;;;;28.60;100.00;100312.85;105089;1262;60563;-51
2023/08/20 08:20:46;;;;;;;1.10;1.00;;;;;;;28.62;100.00;100314.23;105378;1256;73905;-53
2023/08/20 08:23:14;;;;;;;2.30;0.90;;;;;;;28.68;100.00;100320.08;105019;1256;68599;-53
2023/08/20 08:25:41;;;;;;;3.50;0.90;;;;;;;28.71;100.00;100317.98;105145;1256;73127;-54
2023/08/20 08:28:08;;;;;;;3.10;0.80;;;;;;;28.72;100.00;100321.24;105250;1256;60442;-52
2023/08/20 08:30:37;;;;;;;1.40;0.90;;;;;;;28.69;100.00;100318.27;105327;1259;60445;-53
2023/08/20 08:33:05;;;;;;;5.60;1.10;;;;;;;28.65;100.00;100321.71;106438;1257;75084;-53
2023/08/20 08:35:32;;;;;;;1.40;1.00;;;;;;;28.60;100.00;100319.42;105169;1263;67338;-50
2023/08/20 08:37:59;;;;;;;2.60;1.10;;;;;;;28.57;100.00;100322.04;105214;1261;72638;-52
2023/08/20 08:40:28;;;;;;;2.10;0.90;;;;;;;28.55;100.00;100318.79;105120;1257;60417;-52
2023/08/20 08:42:55;;;;;;;4.30;1.00;;;;;;;28.53;100.00;100320.65;105605;1259;60346;-53
2023/08/20 08:45:23;;;;;;;1.40;1.20;;;;;;;28.55;100.00;100318.05;104688;1262;73827;-52
2023/08/20 08:47:50;;;;;;;2.00;1.80;;;;;;;28.58;100.00;100317.60;104910;1258;66732;-53
2023/08/20 08:50:18;;;;;;;1.80;0.70;;;;;;;28.64;100.00;100319.27;105007;1260;71078;-53
2023/08/20 08:52:45;;;;;;;2.60;0.90;;;;;;;28.70;100.00;100322.08;105283;1258;60562;-50
2023/08/20 08:55:12;;;;;;;2.60;0.80;;;;;;;28.73;100.00;100324.05;104966;1256;60674;-51
2023/08/20 08:57:39;;;;;;;2.40;0.80;;;;;;;28.74;100.00;100321.00;105426;1256;73779;-50
2023/08/20 09:00:07;;;;;;;0.90;0.90;;;;;;;28.73;100.00;100326.30;105438;1253;68155;-51
2023/08/20 09:02:35;;;;;;;1.10;0.80;;;;;;;28.69;100.00;100326.95;109128;1252;72757;-53
2023/08/20 09:05:02;;;;;;;3.60;2.10;;;;;;;28.65;100.00;100329.60;109177;1252;59515;-52
2023/08/20 09:07:30;;;;;;;3.40;1.10;;;;;;;28.60;100.00;100325.52;107612;1254;59218;-50
2023/08/20 09:10:00;;;;;;;0.90;0.80;;;;;;;28.56;100.00;100330.59;104882;1253;73081;-51
2023/08/20 09:12:28;;;;;;;1.30;0.80;;;;;;;28.52;100.00;100331.42;108297;1253;67060;-53
2023/08/20 09:14:57;;;;;;;1.60;0.90;;;;;;;28.48;100.00;100330.02;105303;1258;72653;-52
2023/08/20 09:17:25;;;;;;;2.70;0.90;;;;;;;28.45;100.00;100328.23;105322;1259;61198;-52
2023/08/20 09:19:54;;;;;;;1.90;0.90;;;;;;;28.41;100.00;100326.79;106443;1252;61105;-50
2023/08/20 09:22:22;;;;;;;1.90;0.90;;;;;;;28.37;100.00;100324.48;105299;1253;73980;-52
2023/08/20 09:24:54;;;;;;;1.40;1.00;;;;;;;28.32;100.00;100324.53;105020;1253;67369;-54
2023/08/20 09:27:22;;;;;;;3.70;0.90;;;;;;;28.27;100.00;100321.06;109222;1253;71461;-51
2023/08/20 09:29:52;;;;;;;3.50;1.00;;;;;;;28.22;100.00;100325.50;109047;1253;60109;-50
2023/08/20 09:32:24;;;;;;;1.20;1.10;;;;;;;28.18;100.00;100324.48;105874;1257;60470;-52
2023/08/20 09:34:52;;;;;;;2.00;1.10;;;;;;;28.15;100.00;100323.54;105607;1253;73750;-53
2023/08/20 09:37:21;;;;;;;1.40;0.80;;;;;;;28.16;100.00;100317.70;105380;1253;66771;-54
2023/08/20 09:39:48;;;;;;;3.20;0.80;;;;;;;28.21;100.00;100314.53;106795;1257;70666;-51
2023/08/20 09:42:16;;;;;;;4.70;0.80;;;;;;;28.30;100.00;100313.75;105596;1253;60484;-52
2023/08/20 09:44:45;;;;;;;1.20;0.80;;;;;;;28.41;100.00;100305.75;105296;1258;60445;-52
2023/08/20 09:47:17;;;;;;;2.40;0.80;;;;;;;28.54;100.00;100309.20;105390;1253;72651;-52
2023/08/20 09:49:46;;;;;;;2.40;0.60;;;;;;;28.66;100.00;100307.27;105444;1253;67093;-52
2023/08/20 09:52:33;;;;;;;2.90;0.80;;;;;;;28.79;100.00;100304.24;105630;1256;72600;-53
2023/08/20 09:55:08;;;;;;;1.80;0.80;;;;;;;28.92;100.00;100308.53;105716;1253;60559;-52
2023/08/20 09:57:36;;;;;;;2.60;0.80;;;;;;;29.05;100.00;100310.00;105448;1253;60941;-54
2023/08/20 10:00:09;;;;;;;3.20;0.70;;;;;;;29.17;100.00;100306.39;105605;1257;73993;-52
2023/08/20 10:02:42;;;;;;;1.80;0.70;;;;;;;29.30;100.00;100310.38;105774;1252;65626;-52
2023/08/20 10:05:11;;;;;;;3.00;0.80;;;;;;;29.41;100.00;100311.45;105412;1253;71385;-51
2023/08/20 10:07:38;;;;;;;2.30;0.70;;;;;;;29.51;100.00;100309.33;105337;1255;60552;-51
2023/08/20 10:10:13;;;;;;;0.80;0.70;;;;;;;29.61;100.00;100311.48;105434;1256;60472;-51
2023/08/20 10:12:41;;;;;;;2.90;1.10;;;;;;;29.71;100.00;100311.42;105622;1257;73827;-54
2023/08/20 10:15:10;;;;;;;1.80;0.70;;;;;;;29.79;100.00;100311.54;105693;1257;68680;-53
2023/08/20 10:17:38;;;;;;;1.60;0.80;;;;;;;29.87;100.00;100311.99;105367;1254;71441;-54
2023/08/20 10:20:10;;;;;;;1.70;0.90;;;;;;;29.96;100.00;100315.81;105333;1253;60591;-53
2023/08/20 10:22:42;;;;;;;4.40;1.50;;;;;;;30.05;100.00;100319.10;105335;1252;60431;-50
2023/08/20 10:25:22;;;;;;;1.60;0.80;;;;;;;30.13;100.00;100315.54;107081;1257;74318;-53
2023/08/20 10:27:50;;;;;;;1.30;0.80;;;;;;;30.20;100.00;100313.74;105554;1253;66691;-51
2023/08/20 10:30:25;;;;;;;1.10;0.70;;;;;;;30.26;100.00;100316.20;105438;1254;74879;-53
2023/08/20 10:32:53;;;;;;;4.30;0.90;;;;;;;30.33;100.00;100319.56;105826;1253;60534;-51
2023/08/20 10:35:26;;;;;;;2.40;0.80;;;;;;;30.39;100.00;100318.63;105393;1253;60509;-52
2023/08/20 10:38:20;;;;;;;3.40;0.90;;;;;;;30.43;100.00;100313.85;105638;1256;71986;-52
2023/08/20 10:40:51;;;;;;;2.20;0.70;;;;;;;30.48;100.00;100312.12;105446;1253;67932;-51
2023/08/20 10:43:31;;;;;;;3.90;0.70;;;;;;;30.53;100.00;100309.15;105735;1257;72433;-53
2023/08/20 10:46:15;;;;;;;3.50;0.90;;;;;;;30.58;100.00;100305.25;105651;1253;60489;-53
2023/08/20 10:49:03;;;;;;;1.40;0.70;;;;;;;30.63;100.00;100306.65;105657;1253;60346;-51
2023/08/20 10:51:32;;;;;;;1.40;0.80;;;;;;;30.69;100.00;100309.79;105664;1254;73875;-54
2023/08/20 10:54:00;;;;;;;2.60;0.70;;;;;;;30.74;100.00;100301.56;105895;1256;67450;-52
2023/08/20 10:56:44;;;;;;;3.80;0.80;;;;;;;30.78;100.00;100298.81;105322;1256;72918;-52
2023/08/20 10:59:36;;;;;;;3.70;0.70;;;;;;;30.81;100.00;100301.03;105211;1255;60457;-53
2023/08/20 11:02:03;;;;;;;3.90;0.90;;;;;;;30.80;100.00;100300.71;105235;1254;60550;-51
2023/08/20 11:04:32;;;;;;;1.90;1.00;;;;;;;30.78;100.00;100300.87;104911;1251;72669;-51
2023/08/20 11:07:00;;;;;;;1.00;0.80;;;;;;;30.74;100.00;100297.09;105603;1253;65983;-53
2023/08/20 11:09:28;;;;;;;1.80;0.80;;;;;;;30.68;100.00;100290.98;105108;1253;71742;-50
2023/08/20 11:11:56;;;;;;;0.70;0.70;;;;;;;30.62;100.00;100290.06;105053;1251;60561;-53
2023/08/20 11:14:24;;;;;;;1.60;0.70;;;;;;;30.60;100.00;100286.49;105056;1254;60453;-53
2023/08/20 11:16:51;;;;;;;0.70;0.70;;;;;;;30.59;100.00;100280.83;105000;1256;73836;-52
2023/08/20 11:19:22;;;;;;;1.50;1.10;;;;;;;30.58;100.00;100274.73;105603;1253;65664;-52
2023/08/20 11:21:50;;;;;;;4.00;0.90;;;;;;;30.55;100.00;100272.89;105455;1256;72885;-53
2023/08/20 11:24:19;;;;;;;2.30;1.30;;;;;;;30.49;100.00;100267.01;105390;1254;60811;-49